Time;durP1;ratioP1;P1;durP2;ratioP2;P2;SDS_P1;SDS_P2;PMS_P1;PMS_P2;Temp;Humidity;BMP_temperature;BMP_pressure;BME280_temperature;BME280_humidity;BME280_pressure;Samples;Min_cycle;Max_cycle;Signal;HPM_P1;HPM_P2
2021/03/22 00:00:34;;;;;;;2.80;2.35;;;;;;;19.57;46.67;100101.25;1684384;83;21163;-59
2021/03/22 00:03:03;;;;;;;3.73;2.30;;;;;;;19.58;46.67;100097.36;1686430;83;21196;-61
2021/03/22 00:05:29;;;;;;;3.42;2.30;;;;;;;19.57;46.67;100092.98;1686319;83;21229;-59
2021/03/22 00:07:56;;;;;;;3.15;2.35;;;;;;;19.56;46.65;100085.27;1685212;83;21175;-60
2021/03/22 00:10:25;;;;;;;3.83;2.47;;;;;;;19.52;46.65;100081.55;1685638;83;21659;-59
2021/03/22 00:12:53;;;;;;;3.10;2.20;;;;;;;19.50;46.66;100074.73;1681008;83;21191;-59
2021/03/22 00:15:23;;;;;;;3.70;2.20;;;;;;;19.49;46.66;100067.59;1677009;83;21242;-59
2021/03/22 00:17:50;;;;;;;2.90;2.22;;;;;;;19.47;46.70;100059.67;1679940;83;21153;-59
2021/03/22 00:20:17;;;;;;;3.02;2.00;;;;;;;19.48;46.70;100059.07;1677900;83;21571;-59
2021/03/22 00:22:44;;;;;;;3.77;2.10;;;;;;;19.48;46.69;100054.37;1677131;83;21598;-59
2021/03/22 00:25:12;;;;;;;3.40;2.08;;;;;;;19.48;46.68;100042.52;1678212;83;21208;-59
2021/03/22 00:27:39;;;;;;;3.37;1.90;;;;;;;19.46;46.69;100040.11;1677290;83;21238;-59
2021/03/22 00:30:07;;;;;;;2.40;2.10;;;;;;;19.46;46.69;100038.73;1677957;83;21209;-59
2021/03/22 00:32:34;;;;;;;2.95;2.15;;;;;;;19.44;46.67;100036.04;1672579;83;21543;-59
2021/03/22 00:35:01;;;;;;;3.45;2.27;;;;;;;19.40;46.68;100033.66;1677108;83;21262;-59
2021/03/22 00:37:27;;;;;;;3.85;2.30;;;;;;;19.39;46.72;100014.14;1678274;83;21111;-63
2021/03/22 00:39:54;;;;;;;3.20;2.05;;;;;;;19.38;46.72;100028.50;1678175;83;21178;-59
2021/03/22 00:42:20;;;;;;;2.47;1.90;;;;;;;19.39;46.73;100027.93;1676292;83;21190;-59
2021/03/22 00:44:47;;;;;;;3.00;2.10;;;;;;;19.39;46.73;100021.03;1679333;83;21175;-59
2021/03/22 00:47:14;;;;;;;3.83;2.08;;;;;;;19.41;46.74;100021.50;1678175;83;21225;-59
2021/03/22 00:49:40;;;;;;;2.95;2.17;;;;;;;19.43;46.72;100015.12;1679812;83;21178;-60
2021/03/22 00:52:10;;;;;;;2.90;1.92;;;;;;;19.44;46.72;100009.83;1679608;83;21015;-59
2021/03/22 00:54:39;;;;;;;3.20;2.10;;;;;;;19.46;46.74;100011.14;1679997;83;21208;-59
2021/03/22 00:57:08;;;;;;;3.02;1.80;;;;;;;19.47;46.71;100016.09;1678897;83;21558;-59
2021/03/22 00:59:35;;;;;;;2.42;2.10;;;;;;;19.49;46.70;100006.34;1679174;83;21209;-59
2021/03/22 01:02:04;;;;;;;2.83;2.10;;;;;;;19.53;46.71;100003.72;1677813;83;21045;-59
2021/03/22 01:04:31;;;;;;;2.10;1.82;;;;;;;19.57;46.71;99996.41;1678133;83;21156;-59
2021/03/22 01:06:57;;;;;;;6.03;3.15;;;;;;;19.60;46.70;99991.63;1681622;83;21226;-63
2021/03/22 01:09:24;;;;;;;2.55;1.65;;;;;;;19.63;46.67;99989.58;1677080;83;21190;-59
2021/03/22 01:11:50;;;;;;;3.12;2.15;;;;;;;19.67;46.67;99993.30;1677454;83;21249;-59
2021/03/22 01:14:17;;;;;;;2.58;1.70;;;;;;;19.69;46.64;99985.48;1678278;83;21251;-59
2021/03/22 01:16:43;;;;;;;2.37;1.90;;;;;;;19.71;46.62;99978.27;1678177;83;21238;-59
2021/03/22 01:19:15;;;;;;;2.00;1.52;;;;;;;19.72;46.62;99982.08;1679145;83;21593;-60
2021/03/22 01:21:48;;;;;;;1.98;1.50;;;;;;;19.74;46.63;99974.27;1675817;83;21708;-59
2021/03/22 01:24:16;;;;;;;3.42;1.80;;;;;;;19.76;46.63;99978.89;1677038;83;22226;-59
2021/03/22 01:26:42;;;;;;;2.40;1.57;;;;;;;19.78;46.62;99964.17;1677833;83;21056;-59
2021/03/22 01:29:18;;;;;;;2.70;1.80;;;;;;;19.81;46.60;99953.88;1678083;83;21153;-59
2021/03/22 01:31:45;;;;;;;2.65;1.85;;;;;;;19.84;46.58;99955.95;1677785;83;21569;-59
2021/03/22 01:34:11;;;;;;;2.70;1.70;;;;;;;19.87;46.56;99953.91;1678989;83;21187;-59
2021/03/22 01:36:38;;;;;;;2.02;1.65;;;;;;;19.87;46.53;99940.10;1675072;83;21227;-59
2021/03/22 01:39:18;;;;;;;1.98;1.57;;;;;;;19.89;46.50;99938.41;1676842;83;21142;-59
2021/03/22 01:42:21;;;;;;;1.98;1.47;;;;;;;19.90;46.50;99940.81;1677937;83;21064;-59
2021/03/22 01:44:51;;;;;;;2.45;1.77;;;;;;;19.91;46.50;99942.44;1678337;83;21223;-59
2021/03/22 01:47:21;;;;;;;3.05;1.60;;;;;;;19.92;46.52;99935.78;1674423;83;21149;-59
2021/03/22 01:50:12;;;;;;;2.15;1.65;;;;;;;19.95;46.50;99927.39;1672899;84;21210;-58
2021/03/22 01:52:41;;;;;;;2.23;1.77;;;;;;;19.97;46.47;99921.78;1677047;83;21191;-59
2021/03/22 01:55:12;;;;;;;2.65;1.60;;;;;;;19.99;46.44;99922.24;1678080;83;22395;-62
2021/03/22 01:57:43;;;;;;;4.33;1.60;;;;;;;20.00;46.43;99928.58;1676342;83;21150;-59
2021/03/22 02:00:26;;;;;;;2.47;1.70;;;;;;;20.02;46.44;99931.27;1677410;83;21214;-59
2021/03/22 02:02:57;;;;;;;2.35;1.72;;;;;;;20.02;46.43;99920.78;1676079;83;21214;-59
2021/03/22 02:05:25;;;;;;;2.08;1.52;;;;;;;20.03;46.42;99914.09;1677947;83;21255;-60
2021/03/22 02:08:01;;;;;;;1.87;1.57;;;;;;;20.04;46.42;99914.34;1678129;83;21207;-59
2021/03/22 02:10:27;;;;;;;2.45;1.70;;;;;;;20.05;46.41;99908.49;1678122;83;21149;-59
2021/03/22 02:12:54;;;;;;;1.85;1.40;;;;;;;20.08;46.42;99912.52;1679350;83;21234;-61
2021/03/22 02:15:20;;;;;;;2.52;1.55;;;;;;;20.12;46.41;99908.52;1683748;83;21265;-59
2021/03/22 02:18:23;;;;;;;2.83;1.60;;;;;;;20.12;46.37;99906.56;1681018;83;21171;-59
2021/03/22 02:21:26;;;;;;;1.98;1.30;;;;;;;20.14;46.36;99901.53;1681603;83;21182;-59
2021/03/22 02:24:36;;;;;;;2.45;1.60;;;;;;;20.15;46.36;99905.10;1681857;83;21170;-59
2021/03/22 02:27:39;;;;;;;2.37;1.77;;;;;;;20.14;46.33;99896.58;1680852;83;21586;-59
2021/03/22 02:31:00;;;;;;;1.87;1.45;;;;;;;20.14;46.35;99893.24;1681697;83;21269;-59
2021/03/22 02:34:06;;;;;;;1.67;1.30;;;;;;;20.16;46.32;99885.98;1683014;83;21166;-59
2021/03/22 02:37:06;;;;;;;3.12;1.70;;;;;;;20.16;46.30;99889.56;1683532;83;21147;-59
2021/03/22 02:39:56;;;;;;;1.82;1.52;;;;;;;20.15;46.29;99885.20;1683399;83;21223;-60
2021/03/22 02:42:24;;;;;;;2.20;1.55;;;;;;;20.17;46.27;99891.75;1681089;83;21588;-59
2021/03/22 02:44:51;;;;;;;2.17;1.62;;;;;;;20.16;46.27;99889.56;1680977;83;21220;-59
2021/03/22 02:47:37;;;;;;;1.87;1.40;;;;;;;20.16;46.31;99890.94;1683453;83;21845;-59
2021/03/22 02:50:12;;;;;;;2.70;1.60;;;;;;;20.19;46.32;99893.62;1658768;85;21252;-59
2021/03/22 02:53:19;;;;;;;2.30;1.30;;;;;;;20.21;46.34;99887.98;1655579;85;21215;-60
2021/03/22 02:56:15;;;;;;;1.77;1.17;;;;;;;20.23;46.34;99894.56;1634273;85;21132;-59
2021/03/22 02:59:13;;;;;;;2.12;1.57;;;;;;;20.25;46.31;99893.63;1655446;85;21656;-59
2021/03/22 03:02:00;;;;;;;2.25;1.67;;;;;;;20.24;46.27;99885.92;1656186;85;21666;-59
2021/03/22 03:04:27;;;;;;;2.40;1.57;;;;;;;20.24;46.27;99892.83;1656976;85;21145;-59
2021/03/22 03:07:02;;;;;;;2.00;1.37;;;;;;;20.23;46.28;99892.61;1633786;86;21189;-60
2021/03/22 03:09:32;;;;;;;2.30;1.47;;;;;;;20.22;46.29;99896.51;1655102;85;21157;-59
2021/03/22 03:12:15;;;;;;;2.17;1.50;;;;;;;20.23;46.30;99902.28;1656233;85;22020;-59
2021/03/22 03:14:43;;;;;;;2.37;1.50;;;;;;;20.23;46.33;99897.33;1651796;85;21303;-59
2021/03/22 03:17:09;;;;;;;1.87;1.37;;;;;;;20.24;46.30;99896.19;1652121;85;21227;-59
2021/03/22 03:19:36;;;;;;;2.40;1.70;;;;;;;20.23;46.30;99896.75;1650042;85;21592;-59
2021/03/22 03:22:04;;;;;;;1.65;1.20;;;;;;;20.24;46.29;99894.80;1652274;85;21238;-58
2021/03/22 03:24:31;;;;;;;2.30;1.65;;;;;;;20.23;46.29;99894.56;1651300;85;21315;-58
2021/03/22 03:26:57;;;;;;;2.40;1.60;;;;;;;20.20;46.30;99897.41;1651592;85;21276;-59
2021/03/22 03:29:24;;;;;;;2.05;1.50;;;;;;;20.19;46.32;99889.47;1651501;85;21658;-58
2021/03/22 03:31:50;;;;;;;2.20;1.55;;;;;;;20.18;46.33;99885.09;1652746;85;21216;-59
2021/03/22 03:34:17;;;;;;;2.62;1.57;;;;;;;20.17;46.33;99884.28;1651711;85;21529;-59
2021/03/22 03:36:43;;;;;;;1.95;1.40;;;;;;;20.17;46.34;99877.94;1653323;85;21327;-59
2021/03/22 03:39:09;;;;;;;2.12;1.50;;;;;;;20.17;46.33;99877.94;1653461;85;21212;-59
2021/03/22 03:41:38;;;;;;;2.27;1.62;;;;;;;20.16;46.32;99876.32;1651763;85;21152;-59
2021/03/22 03:44:08;;;;;;;2.37;1.60;;;;;;;20.15;46.33;99881.63;1652686;85;21177;-59
2021/03/22 03:46:35;;;;;;;2.50;1.60;;;;;;;20.11;46.29;99875.16;1652492;85;21213;-59
2021/03/22 03:49:02;;;;;;;2.30;1.67;;;;;;;20.07;46.31;99868.91;1653173;85;21296;-59
2021/03/22 03:51:29;;;;;;;2.00;1.40;;;;;;;20.03;46.32;99865.20;1652973;85;21239;-59
2021/03/22 03:53:55;;;;;;;2.15;1.57;;;;;;;20.03;46.33;99867.97;1648886;85;21172;-60
2021/03/22 03:56:22;;;;;;;2.10;1.40;;;;;;;20.02;46.33;99869.70;1653214;85;21883;-59
2021/03/22 03:58:50;;;;;;;2.12;1.90;;;;;;;20.00;46.33;99865.89;1652401;85;21166;-59
2021/03/22 04:01:16;;;;;;;2.72;1.72;;;;;;;20.00;46.30;99870.59;1652559;85;21591;-59
2021/03/22 04:03:43;;;;;;;2.70;2.00;;;;;;;19.97;46.30;99866.56;1650669;85;21651;-59
2021/03/22 04:06:15;;;;;;;2.40;1.85;;;;;;;19.94;46.30;99858.94;1651871;85;21184;-59
2021/03/22 04:08:46;;;;;;;2.92;1.77;;;;;;;19.91;46.29;99865.14;1652696;85;21689;-58
2021/03/22 04:11:26;;;;;;;3.62;1.95;;;;;;;19.89;46.30;99861.11;1653223;85;21215;-59
2021/03/22 04:13:53;;;;;;;2.47;1.75;;;;;;;19.87;46.31;99858.67;1651187;85;22520;-59
2021/03/22 04:16:23;;;;;;;2.25;1.60;;;;;;;19.87;46.34;99862.81;1650026;85;21212;-59
2021/03/22 04:18:52;;;;;;;2.60;1.92;;;;;;;19.88;46.35;99859.48;1648681;85;21261;-59
2021/03/22 04:21:22;;;;;;;2.55;1.80;;;;;;;19.90;46.35;99861.35;1649276;85;21559;-59
2021/03/22 04:23:49;;;;;;;2.70;1.80;;;;;;;19.92;46.35;99865.38;1685877;83;21178;-59
2021/03/22 04:26:15;;;;;;;2.45;1.75;;;;;;;19.94;46.32;99863.08;1650943;85;21184;-58
2021/03/22 04:28:42;;;;;;;2.22;1.60;;;;;;;19.94;46.30;99854.80;1648103;85;21220;-59
2021/03/22 04:31:11;;;;;;;2.05;1.60;;;;;;;19.94;46.32;99858.94;1651215;85;21188;-59
2021/03/22 04:33:37;;;;;;;2.90;1.80;;;;;;;19.96;46.32;99862.19;1645820;85;21604;-59
2021/03/22 04:36:05;;;;;;;2.70;1.67;;;;;;;19.97;46.31;99861.62;1677252;83;21226;-59
2021/03/22 04:38:32;;;;;;;1.82;1.47;;;;;;;20.00;46.31;99861.75;1677921;83;21607;-59
2021/03/22 04:40:58;;;;;;;2.55;1.90;;;;;;;20.02;46.30;99858.66;1677922;83;21153;-60
2021/03/22 04:43:25;;;;;;;3.20;1.98;;;;;;;20.04;46.30;99854.41;1677888;83;21192;-59
2021/03/22 04:45:51;;;;;;;2.33;1.65;;;;;;;20.07;46.26;99857.87;1680933;83;21207;-59
2021/03/22 04:48:18;;;;;;;2.80;1.62;;;;;;;20.08;46.24;99846.25;1680217;83;21236;-59
2021/03/22 04:50:44;;;;;;;2.60;1.75;;;;;;;20.07;46.23;99850.96;1677239;83;21199;-59
2021/03/22 04:53:11;;;;;;;2.80;1.90;;;;;;;20.08;46.22;99847.63;1679656;83;21659;-59
2021/03/22 04:55:38;;;;;;;2.27;1.62;;;;;;;20.09;46.23;99852.02;1681336;82;21044;-59
2021/03/22 04:58:04;;;;;;;2.40;1.75;;;;;;;20.11;46.21;99847.55;1680039;83;21635;-59
2021/03/22 05:00:39;;;;;;;2.60;1.87;;;;;;;20.12;46.21;99844.43;1678498;83;21238;-59
2021/03/22 05:03:08;;;;;;;2.72;1.67;;;;;;;20.15;46.20;99842.97;1679153;83;21278;-59
2021/03/22 05:05:35;;;;;;;2.65;1.75;;;;;;;20.17;46.17;99844.23;1676664;83;21187;-60
2021/03/22 05:08:03;;;;;;;2.02;1.60;;;;;;;20.17;46.13;99850.33;1677055;83;21205;-59
2021/03/22 05:10:34;;;;;;;2.55;1.72;;;;;;;20.18;46.15;99846.42;1677244;83;21217;-59
2021/03/22 05:15:56;;;;;;;1.90;1.50;;;;;;;20.18;46.12;99843.66;1712803;82;21181;-59
2021/03/22 05:18:24;;;;;;;2.30;1.75;;;;;;;20.17;46.11;99833.19;1714884;81;21165;-59
2021/03/22 05:20:56;;;;;;;2.40;1.75;;;;;;;20.19;46.10;99835.05;1713356;82;21283;-59
2021/03/22 05:23:25;;;;;;;2.47;1.60;;;;;;;20.21;46.10;99842.98;1705208;82;21532;-59
2021/03/22 05:25:52;;;;;;;1.87;1.42;;;;;;;20.22;46.08;99841.27;1717894;82;21157;-59
2021/03/22 05:28:20;;;;;;;2.35;1.72;;;;;;;20.23;46.06;99837.38;1681575;83;21214;-60
2021/03/22 05:30:47;;;;;;;5.37;3.47;;;;;;;20.23;46.06;99835.17;1707025;82;21201;-61
2021/03/22 05:33:15;;;;;;;5.08;3.75;;;;;;;20.25;46.03;99840.59;1712497;82;21204;-60
2021/03/22 05:35:42;;;;;;;4.45;3.27;;;;;;;20.27;46.02;99844.41;1710603;82;21169;-59
2021/03/22 05:38:09;;;;;;;4.40;3.08;;;;;;;20.29;45.99;99847.08;1714503;82;21232;-60
2021/03/22 05:40:52;;;;;;;4.47;3.15;;;;;;;20.32;45.99;99849.76;1714313;82;22999;-59
2021/03/22 05:43:44;;;;;;;14.13;4.10;;;;;;;20.34;45.98;99848.26;1714579;82;21177;-60
2021/03/22 05:46:26;;;;;;;6.67;3.10;;;;;;;20.36;46.00;99850.13;1718273;82;21091;-60
2021/03/22 05:49:35;;;;;;;9.33;4.05;;;;;;;20.38;45.98;99846.44;1714655;82;21145;-60
2021/03/22 05:52:26;;;;;;;8.40;3.55;;;;;;;20.38;45.99;99845.62;1688714;83;21619;-61
2021/03/22 05:55:41;;;;;;;6.08;3.08;;;;;;;20.38;46.01;99845.62;1719633;82;21226;-59
2021/03/22 05:58:33;;;;;;;5.72;2.90;;;;;;;20.38;46.05;99848.38;1716689;82;21125;-61
2021/03/22 06:01:27;;;;;;;5.03;3.00;;;;;;;20.40;46.04;99850.25;1714611;82;33396;-58
2021/03/22 06:04:25;;;;;;;5.92;2.77;;;;;;;20.42;46.09;99847.94;1684156;83;21167;-65
2021/03/22 06:06:51;;;;;;;3.80;2.80;;;;;;;20.43;46.11;99841.28;1716447;82;21292;-61
2021/03/22 06:09:47;;;;;;;4.40;3.10;;;;;;;20.44;46.21;99834.04;1718728;82;21193;-62
2021/03/22 06:12:50;;;;;;;5.22;3.30;;;;;;;20.48;46.25;99842.45;1721572;82;21236;-63
2021/03/22 06:15:39;;;;;;;4.75;3.62;;;;;;;20.53;46.26;99845.02;1704985;82;21140;-62
2021/03/22 06:18:38;;;;;;;5.53;3.80;;;;;;;20.61;46.27;99843.30;1684621;83;21201;-60
2021/03/22 06:21:12;;;;;;;8.73;4.37;;;;;;;20.69;46.27;99843.21;1704778;82;21212;-62
2021/03/22 06:23:47;;;;;;;9.28;5.95;;;;;;;20.84;46.24;99841.17;1863173;75;23361;-63
2021/03/22 06:26:38;;;;;;;8.90;5.28;;;;;;;20.86;46.21;99836.12;1838912;77;21205;-62
2021/03/22 06:29:43;;;;;;;8.23;5.12;;;;;;;20.90;46.20;99842.58;1828125;77;21406;-61
2021/03/22 06:32:31;;;;;;;7.42;4.78;;;;;;;20.93;46.18;99837.73;1659443;85;21556;-67
2021/03/22 06:35:05;;;;;;;8.23;4.80;;;;;;;20.96;46.18;99841.79;1660327;85;21045;-60
2021/03/22 06:37:34;;;;;;;8.55;5.30;;;;;;;21.02;46.21;99846.50;1661451;85;21052;-62
2021/03/22 06:40:29;;;;;;;8.15;5.08;;;;;;;21.08;46.21;99850.10;1657933;85;21125;-59
2021/03/22 06:43:18;;;;;;;7.33;4.45;;;;;;;21.12;46.22;99852.44;1658805;85;21519;-60
2021/03/22 06:45:51;;;;;;;6.33;3.95;;;;;;;21.15;46.21;99845.41;1656507;85;21267;-59
2021/03/22 06:48:32;;;;;;;6.00;4.08;;;;;;;21.19;46.23;99847.70;1665599;85;21041;-60
2021/03/22 06:51:04;;;;;;;7.17;4.40;;;;;;;21.24;46.23;99848.87;1662576;85;21931;-60
2021/03/22 06:53:42;;;;;;;6.75;4.53;;;;;;;21.29;46.20;99850.84;1662938;85;21261;-61
2021/03/22 06:56:39;;;;;;;5.72;4.05;;;;;;;21.33;46.15;99851.77;1664894;85;21895;-62
2021/03/22 06:59:26;;;;;;;5.83;3.83;;;;;;;21.34;46.10;99853.36;1631932;86;21263;-60
2021/03/22 07:01:53;;;;;;;4.15;3.00;;;;;;;21.38;46.07;99855.70;1662713;85;21155;-61
2021/03/22 07:04:32;;;;;;;4.15;2.95;;;;;;;21.44;46.04;99849.33;1657445;85;21256;-60
2021/03/22 07:07:16;;;;;;;6.58;4.62;;;;;;;21.49;46.02;99852.45;1656502;85;21672;-61
2021/03/22 07:09:54;;;;;;;6.95;4.40;;;;;;;21.52;45.93;99851.17;1623130;86;21319;-60
2021/03/22 07:12:37;;;;;;;5.08;3.92;;;;;;;21.53;45.86;99852.80;1655596;85;21325;-60
2021/03/22 07:15:27;;;;;;;5.85;3.60;;;;;;;21.53;45.83;99842.30;1657788;84;21253;-60
2021/03/22 07:18:20;;;;;;;6.08;3.87;;;;;;;21.54;45.81;99851.64;1661129;85;21592;-59
2021/03/22 07:21:07;;;;;;;5.70;3.77;;;;;;;21.57;45.78;99838.49;1664313;85;21210;-60
2021/03/22 07:23:51;;;;;;;5.47;3.98;;;;;;;21.60;45.71;99841.94;1657983;85;21552;-60
2021/03/22 07:26:48;;;;;;;5.42;3.70;;;;;;;21.62;45.65;99839.64;1634106;86;21237;-60
2021/03/22 07:29:53;;;;;;;7.17;3.83;;;;;;;21.61;45.59;99833.87;1632850;86;21205;-59
2021/03/22 07:32:47;;;;;;;5.22;3.58;;;;;;;21.61;45.58;99829.72;1656374;85;21567;-61
2021/03/22 07:36:04;;;;;;;4.65;3.33;;;;;;;21.67;45.53;99835.27;1632354;86;21254;-61
2021/03/22 07:39:06;;;;;;;5.25;3.50;;;;;;;21.70;45.48;99828.21;1655934;85;21198;-60
2021/03/22 07:42:01;;;;;;;7.12;3.65;;;;;;;21.72;45.38;99833.64;1611460;87;21262;-58
2021/03/22 07:44:42;;;;;;;5.45;3.27;;;;;;;21.70;45.32;99824.06;1631418;86;21210;-59
2021/03/22 07:47:33;;;;;;;4.87;3.00;;;;;;;21.69;45.27;99823.82;1656683;85;21195;-59
2021/03/22 07:50:23;;;;;;;4.30;3.02;;;;;;;21.69;45.28;99823.82;1657151;85;21146;-60
2021/03/22 07:53:00;;;;;;;5.65;4.25;;;;;;;21.70;45.25;99822.09;1635985;86;21234;-59
2021/03/22 07:55:52;;;;;;;7.17;4.03;;;;;;;21.69;45.17;99821.86;1602897;87;21263;-59
2021/03/22 07:58:39;;;;;;;16.52;10.53;;;;;;;21.69;45.16;99820.48;1626818;86;21733;-59
2021/03/22 08:01:23;;;;;;;12.82;9.70;;;;;;;21.66;44.80;99824.53;1661920;84;21217;-60
2021/03/22 08:04:37;;;;;;;7.65;6.50;;;;;;;21.59;44.11;99820.16;1659534;84;21181;-60
2021/03/22 08:07:46;;;;;;;8.05;5.90;;;;;;;21.50;43.32;99824.44;1658534;84;21311;-61
2021/03/22 08:10:30;;;;;;;7.65;5.92;;;;;;;21.37;42.71;99826.41;1660814;84;21477;-60
2021/03/22 08:13:17;;;;;;;11.00;7.33;;;;;;;21.35;42.77;99824.55;1658238;84;21267;-61
2021/03/22 08:16:38;;;;;;;11.60;8.55;;;;;;;21.36;42.85;99817.05;1660294;84;21066;-61
2021/03/22 08:19:29;;;;;;;12.03;8.75;;;;;;;21.38;42.93;99818.91;1639378;84;21259;-62
2021/03/22 08:22:29;;;;;;;12.73;8.73;;;;;;;21.43;43.01;99813.13;1666571;84;21607;-61
2021/03/22 08:25:21;;;;;;;15.00;8.15;;;;;;;21.46;43.07;99811.64;1685941;83;21061;-60
2021/03/22 08:28:04;;;;;;;12.68;8.38;;;;;;;21.48;43.11;99807.36;1687023;83;21224;-60
2021/03/22 08:30:42;;;;;;;10.32;8.05;;;;;;;21.47;43.13;99801.62;1688211;83;21547;-60
2021/03/22 08:33:26;;;;;;;11.30;7.33;;;;;;;21.46;43.19;99801.95;1681562;83;21543;-59
2021/03/22 08:36:32;;;;;;;8.78;6.05;;;;;;;21.47;43.24;99811.30;1686298;83;21265;-60
2021/03/22 08:39:29;;;;;;;8.05;6.08;;;;;;;21.51;43.24;99814.17;1685912;83;21171;-61
2021/03/22 08:42:18;;;;;;;8.63;6.28;;;;;;;21.52;43.23;99808.27;1641838;85;21197;-59
2021/03/22 08:44:51;;;;;;;9.80;6.28;;;;;;;21.50;43.21;99805.06;1602333;88;21270;-60
2021/03/22 08:47:55;;;;;;;8.15;5.47;;;;;;;21.51;43.24;99810.02;1625166;86;21247;-61
2021/03/22 08:50:28;;;;;;;12.70;6.50;;;;;;;21.50;43.27;99815.33;1626028;86;21533;-60
2021/03/22 08:53:14;;;;;;;7.75;5.70;;;;;;;21.51;43.31;99803.11;1632615;86;21211;-62
2021/03/22 08:55:49;;;;;;;11.22;6.15;;;;;;;21.53;43.31;99796.63;1626535;86;21204;-62
2021/03/22 08:58:39;;;;;;;6.22;4.67;;;;;;;21.55;43.29;99788.80;1626881;86;21192;-62
2021/03/22 09:01:19;;;;;;;9.75;5.67;;;;;;;21.55;43.24;99782.70;1633291;86;21250;-62
2021/03/22 09:03:50;;;;;;;6.00;4.47;;;;;;;21.54;43.24;99779.69;1640065;86;21244;-62
2021/03/22 09:06:27;;;;;;;7.17;4.45;;;;;;;21.54;43.27;99774.73;1642373;86;21316;-60
2021/03/22 09:08:59;;;;;;;8.05;4.40;;;;;;;21.54;43.29;99775.54;1627954;86;21291;-60
2021/03/22 09:11:34;;;;;;;5.92;4.20;;;;;;;21.57;43.29;99775.41;1626033;86;21278;-62
2021/03/22 09:14:27;;;;;;;5.67;4.42;;;;;;;21.58;43.26;99777.84;1633222;86;21253;-64
2021/03/22 09:16:53;;;;;;;5.90;4.22;;;;;;;21.57;43.22;99767.10;1651410;85;21230;-60
2021/03/22 09:19:43;;;;;;;6.50;4.42;;;;;;;21.56;43.22;99762.72;1658709;85;21195;-61
2021/03/22 09:22:15;;;;;;;5.75;3.77;;;;;;;21.54;43.18;99764.47;1649072;85;21174;-60
2021/03/22 09:24:46;;;;;;;8.33;4.47;;;;;;;21.54;43.20;99763.08;1649049;85;21686;-60
2021/03/22 09:27:22;;;;;;;10.55;4.10;;;;;;;21.58;43.21;99767.34;1654232;85;21567;-61
2021/03/22 09:30:04;;;;;;;7.58;4.60;;;;;;;21.60;43.17;99769.19;1654527;85;21271;-61
2021/03/22 09:32:36;;;;;;;4.67;2.87;;;;;;;21.60;43.14;99766.42;1655661;85;21249;-61
2021/03/22 09:35:20;;;;;;;6.47;3.60;;;;;;;21.58;43.12;99765.95;1655840;85;21160;-61
2021/03/22 09:37:59;;;;;;;8.30;4.15;;;;;;;21.58;43.14;99762.61;1658089;85;21469;-62
2021/03/22 09:40:32;;;;;;;6.22;3.52;;;;;;;21.61;43.13;99770.78;1660572;85;21193;-62
2021/03/22 09:43:14;;;;;;;5.10;3.17;;;;;;;21.64;43.10;99773.66;1658755;85;21603;-62
2021/03/22 09:46:01;;;;;;;8.00;4.03;;;;;;;21.68;43.04;99775.17;1653452;85;21232;-62
2021/03/22 09:48:40;;;;;;;4.97;3.05;;;;;;;21.67;42.97;99770.20;1655791;85;21636;-61
2021/03/22 09:51:12;;;;;;;3.67;3.02;;;;;;;21.66;42.97;99773.31;1657783;85;21250;-59
2021/03/22 09:54:00;;;;;;;3.98;3.17;;;;;;;21.65;42.96;99777.23;1655922;85;21166;-60
2021/03/22 09:56:43;;;;;;;4.92;2.90;;;;;;;21.66;42.96;99774.70;1651925;85;22065;-61
2021/03/22 09:59:34;;;;;;;5.08;3.42;;;;;;;21.69;42.94;99768.45;1625472;86;21669;-62
2021/03/22 10:02:03;;;;;;;3.83;3.00;;;;;;;21.71;42.87;99771.13;1659426;84;21232;-62
2021/03/22 10:04:35;;;;;;;3.92;3.02;;;;;;;21.69;42.82;99774.80;1644461;85;21473;-63
2021/03/22 10:07:27;;;;;;;3.35;2.70;;;;;;;21.67;42.84;99771.59;1652098;85;21213;-61
2021/03/22 10:10:00;;;;;;;4.47;2.47;;;;;;;21.68;42.87;99766.30;1621636;85;22303;-63
2021/03/22 10:12:37;;;;;;;4.28;3.15;;;;;;;21.68;42.85;99767.67;1650939;85;21199;-63
2021/03/22 10:15:13;;;;;;;8.03;3.58;;;;;;;21.72;42.83;99770.55;1623733;85;21669;-63
2021/03/22 10:17:52;;;;;;;3.67;2.95;;;;;;;21.72;42.74;99771.36;1652863;83;21241;-62
2021/03/22 10:20:30;;;;;;;6.45;3.45;;;;;;;21.71;42.73;99762.00;1651729;85;21238;-62
2021/03/22 10:23:16;;;;;;;2.98;2.40;;;;;;;21.70;42.73;99765.34;1643372;85;21311;-61
2021/03/22 10:25:55;;;;;;;4.60;2.62;;;;;;;21.76;42.71;99768.12;1866739;75;22460;-60
2021/03/22 10:28:24;;;;;;;3.40;2.73;;;;;;;21.77;42.71;99767.51;1830467;77;21122;-61
2021/03/22 10:31:02;;;;;;;4.85;2.58;;;;;;;21.78;42.64;99761.63;1834447;76;21387;-64
2021/03/22 10:33:29;;;;;;;4.20;2.65;;;;;;;21.77;42.58;99753.67;1792497;78;21189;-63
2021/03/22 10:35:59;;;;;;;4.15;3.02;;;;;;;21.74;42.58;99751.03;1796622;78;21038;-62
2021/03/22 10:38:35;;;;;;;3.12;2.80;;;;;;;21.71;42.60;99753.12;1761556;80;21442;-61
2021/03/22 10:41:07;;;;;;;4.17;2.65;;;;;;;21.69;42.61;99749.89;1798560;78;21177;-63
2021/03/22 10:43:38;;;;;;;3.87;2.55;;;;;;;21.69;42.62;99751.84;1757350;80;21545;-62
2021/03/22 10:46:18;;;;;;;4.17;2.47;;;;;;;21.70;42.64;99751.51;1770403;78;21027;-61
2021/03/22 10:48:46;;;;;;;4.00;2.70;;;;;;;21.71;42.63;99748.16;1776233;78;21219;-64
2021/03/22 10:51:18;;;;;;;3.22;2.60;;;;;;;21.69;42.64;99754.04;1775912;78;21807;-61
2021/03/22 10:53:57;;;;;;;3.27;2.70;;;;;;;21.67;42.67;99757.75;1780213;80;21694;-61
2021/03/22 10:56:35;;;;;;;2.95;2.00;;;;;;;21.68;42.71;99748.30;1773955;78;21202;-62
2021/03/22 10:59:16;;;;;;;3.52;2.50;;;;;;;21.71;42.76;99732.94;1772922;78;21286;-63
2021/03/22 11:01:42;;;;;;;3.30;2.37;;;;;;;21.75;42.74;99733.84;1767672;80;21610;-63
2021/03/22 11:04:16;;;;;;;4.83;2.80;;;;;;;21.77;42.69;99735.09;1773441;79;21145;-62
2021/03/22 11:06:45;;;;;;;5.08;2.60;;;;;;;21.75;42.67;99727.73;1782256;79;21189;-63
2021/03/22 11:09:25;;;;;;;3.47;2.22;;;;;;;21.72;42.64;99720.14;1770805;79;21282;-63
2021/03/22 11:11:53;;;;;;;3.47;2.45;;;;;;;21.72;42.66;99725.67;1772635;79;21173;-61
2021/03/22 11:14:22;;;;;;;2.87;2.15;;;;;;;21.75;42.69;99731.89;1770517;79;21182;-62
2021/03/22 11:16:48;;;;;;;3.90;2.52;;;;;;;21.77;42.68;99734.29;1769731;79;21241;-65
2021/03/22 11:19:29;;;;;;;3.40;2.70;;;;;;;21.76;42.67;99724.39;1767951;79;21157;-63
2021/03/22 11:22:00;;;;;;;3.45;2.12;;;;;;;21.73;42.69;99720.34;1780866;78;21261;-63
2021/03/22 11:24:39;;;;;;;4.47;2.77;;;;;;;21.73;42.71;99709.84;1801294;78;21185;-61
2021/03/22 11:27:10;;;;;;;3.65;2.45;;;;;;;21.73;42.76;99700.97;1782265;78;21218;-62
2021/03/22 11:29:57;;;;;;;3.45;2.22;;;;;;;21.75;42.77;99697.86;1780142;78;21560;-62
2021/03/22 11:32:32;;;;;;;2.80;2.08;;;;;;;21.76;42.76;99691.98;1779423;80;21192;-62
2021/03/22 11:35:00;;;;;;;3.62;2.58;;;;;;;21.72;42.74;99684.16;1777201;79;21515;-62
2021/03/22 11:37:30;;;;;;;3.00;2.50;;;;;;;21.69;42.76;99682.64;1752101;79;21213;-62
2021/03/22 11:40:05;;;;;;;3.62;2.10;;;;;;;21.66;42.77;99678.63;1779182;79;21217;-62
2021/03/22 11:42:36;;;;;;;3.87;2.52;;;;;;;21.64;42.82;99678.77;1783104;79;21137;-63
2021/03/22 11:45:36;;;;;;;4.30;2.55;;;;;;;21.64;42.88;99676.77;1777922;79;21186;-60
2021/03/22 11:48:05;;;;;;;6.47;2.90;;;;;;;21.65;42.91;99674.23;1781163;79;22295;-63
2021/03/22 11:50:36;;;;;;;8.43;4.12;;;;;;;21.66;42.97;99677.24;1775331;79;21609;-63
2021/03/22 11:53:20;;;;;;;4.75;2.47;;;;;;;21.63;43.02;99664.69;1776966;79;21258;-63
2021/03/22 11:55:54;;;;;;;4.80;2.60;;;;;;;21.60;43.08;99677.85;1777221;79;21142;-62
2021/03/22 11:58:32;;;;;;;4.53;2.75;;;;;;;21.57;43.20;99676.58;1776960;79;21209;-63
2021/03/22 12:01:22;;;;;;;3.67;2.72;;;;;;;21.57;43.29;99680.73;1777568;79;21320;-63
2021/03/22 12:03:50;;;;;;;4.05;3.00;;;;;;;21.57;43.36;99679.34;1780549;79;21241;-63
2021/03/22 12:06:20;;;;;;;7.72;3.15;;;;;;;21.58;43.46;99682.34;1783227;79;21232;-63
2021/03/22 12:08:53;;;;;;;3.77;3.10;;;;;;;21.57;43.55;99679.34;1785970;79;21177;-63
2021/03/22 12:11:26;;;;;;;6.30;3.40;;;;;;;21.56;43.64;99678.30;1787905;79;21210;-63
2021/03/22 12:13:56;;;;;;;4.03;2.40;;;;;;;21.54;43.72;99678.67;1784800;79;21236;-63
2021/03/22 12:16:29;;;;;;;3.77;2.20;;;;;;;21.54;43.81;99682.82;1780271;79;21597;-63
2021/03/22 12:18:57;;;;;;;4.37;2.80;;;;;;;21.57;43.88;99686.84;1759961;80;21712;-64
2021/03/22 12:21:24;;;;;;;3.98;2.85;;;;;;;21.58;43.89;99675.42;1787577;78;21620;-62